CYTH

Thompson Airport

Thompson, Manitoba, Canada
TAF CYTH 171838Z 1719/1807 VRB03KT P6SM SCT160 BECMG 1719/1721 18012KT FM172200 18012KT P6SM BKN040 TEMPO 1722/1801 3SM -SN BKN020 FM180100 18012KT P6SM BKN025 TEMPO 1801/1805 3SM -SN BKN010 PROB30 1801/1805 2SM -FZDZ BR BKN008 FM180500 18008KT P6SM FEW120 RMK NXT FCST BY 180100Z
Issued Valid From Valid To
Oct-17 @ 18:38 UTC
(2 hours ago)
Oct-17 @ 19:00 UTC
(2 hours ago)
Oct-18 @ 07:00 UTC
(in 10 hours)
Oct-17 @ 19:00 to Oct-18 @ 07:00
TAF CYTH 171838Z 1719/1807 VRB03KT P6SM SCT160
Wind Visibility Clouds
Variable at 3 knots Greater than 6 miles
  • Scattered at 16,000' AGL
Becoming Oct-17 @ 19:00 to Oct-17 @ 22:00
BECMG 1719/1721 18012KT
Wind Visibility Clouds
180° at 12 knots Greater than 6 miles
  • Scattered at 16,000' AGL
From Oct-17 @ 22:00 to Oct-18 @ 01:00
FM172200 18012KT P6SM BKN040
Wind Visibility Clouds
180° at 12 knots Greater than 6 miles
  • Broken at 4,000' AGL
Temporary Oct-17 @ 22:00 to Oct-18 @ 01:00
TEMPO 1722/1801 3SM -SN BKN020
Visibility Clouds Conditions
3 miles
  • Broken at 2,000' AGL
  • Light Snow
From Oct-18 @ 01:00 to Oct-18 @ 05:00
FM180100 18012KT P6SM BKN025
Wind Visibility Clouds
180° at 12 knots Greater than 6 miles
  • Broken at 2,500' AGL
Temporary Oct-18 @ 01:00 to Oct-18 @ 05:00
TEMPO 1801/1805 3SM -SN BKN010
Visibility Clouds Conditions
3 miles
  • Broken at 1,000' AGL
  • Light Snow
Probable  (Probability 30%) Oct-18 @ 01:00 to Oct-18 @ 05:00
PROB30 1801/1805 2SM -FZDZ BR BKN008
Visibility Clouds Conditions
2 miles
  • Broken at 800' AGL
  • Light Freezing
  • Light Drizzle
  • Mist
From Oct-18 @ 05:00 to Oct-18 @ 07:00
FM180500 18008KT P6SM FEW120 RMK NXT FCST BY 180100Z
Wind Visibility Clouds
180° at 8 knots Greater than 6 miles
  • Few at 12,000' AGL
TAF CYTH 171838Z 1719/1807 VRB03KT P6SM SCT160 BECMG 1719/1721 18012KT FM172200 18012KT P6SM BKN040 TEMPO 1722/1801 3SM -SN BKN020 FM180100 18012KT P6SM BKN025 TEMPO 1801/1805 3SM -SN BKN010 PROB30 1801/1805 2SM -FZDZ BR BKN008 FM180500 18008KT P6SM FEW120 RMK NXT FCST BY 180100Z
Issued Oct-17 @ 18:38 UTC
(2 hours ago)
Valid From Oct-17 @ 19:00 UTC
(2 hours ago)
Valid To Oct-18 @ 07:00 UTC
(in 10 hours)
Oct-17 @ 19:00 - Oct-18 @ 07:00
Wind Visibility
Variable at 3 knots Greater than 6 miles
Clouds
  • Scattered at 16,000' AGL
Becoming Oct-17 @ 19:00 - Oct-17 @ 22:00
Wind Visibility
180° at 12 knots Greater than 6 miles
Clouds
  • Scattered at 16,000' AGL
From Oct-17 @ 22:00 - Oct-18 @ 01:00
Wind Visibility
180° at 12 knots Greater than 6 miles
Clouds
  • Broken at 4,000' AGL
Temporary Oct-17 @ 22:00 - Oct-18 @ 01:00
Clouds
  • Broken at 2,000' AGL
Conditions
  • Light Snow
From Oct-18 @ 01:00 - Oct-18 @ 05:00
Wind Visibility
180° at 12 knots Greater than 6 miles
Clouds
  • Broken at 2,500' AGL
Temporary Oct-18 @ 01:00 - Oct-18 @ 05:00
Clouds
  • Broken at 1,000' AGL
Conditions
  • Light Snow
Probability 30% Probable Oct-18 @ 01:00 - Oct-18 @ 05:00
Clouds
  • Broken at 800' AGL
Conditions
  • Light Freezing
  • Light Drizzle
  • Mist
From Oct-18 @ 05:00 - Oct-18 @ 07:00
Wind Visibility
180° at 8 knots Greater than 6 miles
Clouds
  • Few at 12,000' AGL